Time;durP1;ratioP1;P1;durP2;ratioP2;P2;SDS_P1;SDS_P2;PMS_P1;PMS_P2;Temp;Humidity;BMP_temperature;BMP_pressure;BME280_temperature;BME280_humidity;BME280_pressure;Samples;Min_cycle;Max_cycle;Signal;HPM_P1;HPM_P2
2022/09/12 00:07:54;;;;;;;1.13;0.77;;;;;;;11.49;100.00;97809.91;18491154;32;20061;-61
2022/09/12 00:17:57;;;;;;;1.63;0.70;;;;;;;11.32;100.00;97800.19;18369067;32;20094;-60
2022/09/12 00:27:59;;;;;;;1.90;0.83;;;;;;;11.32;100.00;97802.09;18355685;32;20485;-61
2022/09/12 00:38:01;;;;;;;1.00;0.60;;;;;;;11.21;100.00;97797.75;18355179;32;20069;-61
2022/09/12 00:48:04;;;;;;;0.87;0.53;;;;;;;11.13;100.00;97794.50;18475948;32;20057;-61
2022/09/12 00:58:19;;;;;;;6.07;1.03;;;;;;;11.13;100.00;97783.69;18504771;32;20058;-60
2022/09/12 01:08:22;;;;;;;1.15;0.50;;;;;;;11.07;100.00;97781.25;18504105;32;20061;-60
2022/09/12 01:18:33;;;;;;;0.53;0.50;;;;;;;10.93;100.00;97775.56;18503420;32;20057;-61
2022/09/12 01:29:06;;;;;;;1.70;0.80;;;;;;;10.88;100.00;97767.44;18365167;32;20232;-61
2022/09/12 01:39:28;;;;;;;3.97;0.80;;;;;;;10.79;100.00;97754.44;18364606;32;20135;-60
2022/09/12 01:49:47;;;;;;;1.67;0.93;;;;;;;10.74;100.00;97743.59;18363610;32;20432;-61
2022/09/12 01:59:56;;;;;;;2.13;0.77;;;;;;;10.67;100.00;97745.78;18381718;32;20107;-62
2022/09/12 02:10:07;;;;;;;5.33;0.97;;;;;;;10.62;100.00;97740.34;18421722;32;20109;-63
2022/09/12 02:20:19;;;;;;;2.40;0.83;;;;;;;10.54;100.00;97746.28;18435127;32;20054;-62
2022/09/12 02:31:05;;;;;;;1.20;0.77;;;;;;;10.47;100.00;97752.78;18434149;32;20075;-63
2022/09/12 02:41:08;;;;;;;0.80;0.60;;;;;;;10.38;100.00;97743.56;18434175;32;20057;-62
2022/09/12 02:51:10;;;;;;;0.90;0.60;;;;;;;10.31;100.00;97738.37;18433310;32;20103;-63
2022/09/12 03:01:34;;;;;;;1.20;0.83;;;;;;;10.27;100.00;97733.78;18490053;32;20049;-63
2022/09/12 03:12:01;;;;;;;1.10;0.80;;;;;;;10.24;100.00;97731.63;18497041;32;20061;-63
2022/09/12 03:22:45;;;;;;;4.07;1.13;;;;;;;10.14;100.00;97727.81;18497218;32;20049;-62
2022/09/12 03:32:54;;;;;;;1.50;1.00;;;;;;;10.11;100.00;97724.81;18357896;32;20111;-63
2022/09/12 03:42:56;;;;;;;2.30;0.70;;;;;;;10.02;100.00;97719.12;18357217;32;20412;-62
2022/09/12 03:52:59;;;;;;;1.00;0.83;;;;;;;10.02;100.00;97713.72;18229997;32;20143;-62
2022/09/12 04:03:01;;;;;;;3.63;0.83;;;;;;;10.01;100.00;97721.00;18273409;32;20077;-62
2022/09/12 04:13:03;;;;;;;1.10;0.80;;;;;;;9.95;100.00;97713.16;18343752;32;20087;-63
2022/09/12 04:23:06;;;;;;;1.70;0.90;;;;;;;9.90;100.00;97707.72;18367109;32;20097;-63
2022/09/12 04:33:08;;;;;;;1.70;0.90;;;;;;;9.80;100.00;97695.81;18280016;32;20360;-63
2022/09/12 04:43:10;;;;;;;0.97;0.70;;;;;;;9.78;100.00;97703.34;18292480;32;20376;-63
2022/09/12 04:53:15;;;;;;;;;;;;;;;9.74;100.00;97702.25;18300392;32;20395;-63
2022/09/12 05:03:17;;;;;;;2.17;0.90;;;;;;;9.66;100.00;97705.44;18399241;32;19949;-62
2022/09/12 05:13:21;;;;;;;2.20;1.13;;;;;;;9.68;100.00;97708.72;18439370;32;20050;-62
2022/09/12 05:23:23;;;;;;;5.87;1.10;;;;;;;9.64;100.00;97699.53;18365238;32;20065;-63
2022/09/12 05:33:26;;;;;;;1.70;1.03;;;;;;;9.63;100.00;97701.41;18365012;32;20483;-63
2022/09/12 05:43:29;;;;;;;1.60;1.23;;;;;;;9.60;100.00;97710.03;18364088;32;20065;-62
2022/09/12 05:53:32;;;;;;;1.00;0.87;;;;;;;9.72;100.00;97731.41;18429143;32;20105;-63
2022/09/12 06:03:39;;;;;;;1.00;0.90;;;;;;;9.93;100.00;97731.50;18500515;32;20061;-62
2022/09/12 06:13:43;;;;;;;1.90;0.90;;;;;;;10.16;100.00;97738.34;18486353;32;20061;-62
2022/09/12 06:23:47;;;;;;;2.27;1.50;;;;;;;10.46;100.00;97743.03;18472786;32;20054;-62
2022/09/12 06:33:52;;;;;;;2.37;1.42;;;;;;;10.81;100.00;97746.06;18485169;32;20082;-62
2022/09/12 06:43:58;;;;;;;2.07;1.60;;;;;;;11.18;100.00;97744.97;18498602;32;20433;-62
2022/09/12 06:54:04;;;;;;;2.27;1.70;;;;;;;11.61;100.00;97733.81;18497499;32;20090;-63
2022/09/12 07:04:08;;;;;;;2.62;1.65;;;;;;;12.09;100.00;97733.41;18359272;32;20113;-62
2022/09/12 07:14:13;;;;;;;1.40;1.20;;;;;;;12.53;100.00;97719.84;18345348;32;20121;-63
2022/09/12 07:24:17;;;;;;;;;;;;;;;13.03;100.00;97730.63;18346116;32;20483;-62
2022/09/12 07:34:23;;;;;;;2.60;1.67;;;;;;;13.52;100.00;97720.66;18379670;32;19964;-62
2022/09/12 07:44:46;;;;;;;2.60;1.70;;;;;;;14.03;100.00;97723.88;18495651;32;20429;-62
2022/09/12 07:55:00;;;;;;;2.95;2.20;;;;;;;14.57;100.00;97721.81;18494780;32;20474;-61
2022/09/12 08:05:06;;;;;;;3.17;1.90;;;;;;;15.23;100.00;97714.50;18494597;32;20080;-61
2022/09/12 08:15:11;;;;;;;2.83;2.10;;;;;;;15.85;100.00;97718.84;18494967;32;20091;-61
2022/09/12 08:25:22;;;;;;;4.43;2.20;;;;;;;16.21;97.80;97726.31;18499073;32;20057;-61
2022/09/12 08:35:43;;;;;;;6.53;2.22;;;;;;;16.51;97.49;97713.09;18494864;32;20049;-61
2022/09/12 08:46:19;;;;;;;3.25;1.83;;;;;;;17.01;94.05;97725.06;18491729;32;20492;-61
2022/09/12 08:56:56;;;;;;;;;;;;;;;;;;;;;
2022/09/12 09:07:24;;;;;;;1.85;1.52;;;;;;;18.05;88.76;97740.41;18366519;32;20527;-61
2022/09/12 09:28:30;;;;;;;3.00;1.17;;;;;;;18.92;83.27;97743.25;18389222;32;20053;-61
2022/09/12 09:38:49;;;;;;;1.42;1.00;;;;;;;19.26;82.45;97738.06;18437990;32;20057;-61
2022/09/12 09:48:59;;;;;;;1.90;1.15;;;;;;;19.70;80.03;97730.53;18437498;32;20069;-61
2022/09/12 09:59:24;;;;;;;1.87;0.95;;;;;;;20.07;79.22;97730.06;18479710;32;20067;-61
2022/09/12 10:09:34;;;;;;;1.60;1.08;;;;;;;20.33;70.47;97729.91;18500829;32;20049;-61
2022/09/12 10:19:39;;;;;;;1.77;0.93;;;;;;;20.72;76.90;97713.34;18298759;32;20127;-61
2022/09/12 10:29:51;;;;;;;3.28;1.15;;;;;;;21.01;71.76;97708.88;18285317;32;20093;-61
2022/09/12 10:39:57;;;;;;;1.45;1.02;;;;;;;21.16;66.87;97706.31;18284757;32;20116;-61
2022/09/12 10:50:19;;;;;;;2.12;0.90;;;;;;;21.40;71.21;97701.22;18330822;32;20061;-61
2022/09/12 11:00:29;;;;;;;;;;;;;;;21.64;67.94;97693.03;18483915;32;20053;-61
2022/09/12 11:10:58;;;;;;;1.73;0.77;;;;;;;22.03;63.52;97678.91;18497135;32;19993;-61
2022/09/12 11:21:18;;;;;;;2.25;0.93;;;;;;;22.51;65.11;97681.97;18496447;32;20362;-61
2022/09/12 11:31:41;;;;;;;1.15;0.80;;;;;;;22.94;61.80;97683.19;18481691;32;20068;-61
2022/09/12 11:41:55;;;;;;;0.90;0.77;;;;;;;23.34;62.93;97676.81;18495684;32;20098;-61
2022/09/12 11:52:14;;;;;;;0.87;0.60;;;;;;;23.72;59.75;97663.53;18482218;32;20100;-61
2022/09/12 12:03:19;;;;;;;2.05;0.50;;;;;;;24.09;55.39;97667.97;18374638;32;20069;-61
2022/09/12 12:14:18;;;;;;;2.13;0.70;;;;;;;24.57;56.89;97657.59;18231854;32;20256;-61
2022/09/12 12:24:30;;;;;;;1.08;0.57;;;;;;;24.99;57.27;97643.00;18179677;32;20117;-61
2022/09/12 12:34:39;;;;;;;0.82;0.50;;;;;;;25.41;54.90;97637.84;18178700;32;20082;-61
2022/09/12 12:44:50;;;;;;;0.68;0.47;;;;;;;25.63;54.74;97623.19;18198170;32;20082;-61
2022/09/12 12:55:03;;;;;;;0.82;0.50;;;;;;;26.12;54.36;97623.53;18254239;32;20078;-62
2022/09/12 13:05:21;;;;;;;1.43;0.53;;;;;;;26.60;51.69;97615.47;18352579;32;20073;-61
2022/09/12 13:15:36;;;;;;;1.00;0.62;;;;;;;26.71;50.69;97608.06;18337046;32;20121;-61
2022/09/12 13:25:38;;;;;;;0.90;0.60;;;;;;;26.78;50.15;97595.44;18410918;32;20065;-61
2022/09/12 13:36:10;;;;;;;1.05;0.50;;;;;;;26.96;52.53;97585.34;18433615;32;20060;-61
2022/09/12 13:46:33;;;;;;;3.37;0.50;;;;;;;26.92;48.01;97572.63;18428926;32;20351;-61
2022/09/12 13:56:49;;;;;;;0.68;0.50;;;;;;;27.23;51.14;97577.69;18457828;32;20148;-61
2022/09/12 14:06:59;;;;;;;1.00;0.60;;;;;;;27.49;48.28;97564.00;18500980;32;20053;-62
2022/09/12 14:17:17;;;;;;;1.75;0.57;;;;;;;27.42;47.09;97555.63;18500426;32;20335;-61
2022/09/12 14:27:36;;;;;;;3.22;0.70;;;;;;;26.28;42.37;97543.78;18499005;32;20440;-61
2022/09/12 14:37:39;;;;;;;0.70;0.47;;;;;;;25.87;48.49;97535.31;18498923;32;20041;-61
2022/09/12 14:47:47;;;;;;;0.77;0.55;;;;;;;25.34;54.97;97523.09;18498496;32;20368;-61
2022/09/12 14:58:19;;;;;;;0.85;0.60;;;;;;;25.12;54.75;97512.81;18483611;32;20046;-60
2022/09/12 15:08:22;;;;;;;0.80;0.52;;;;;;;24.85;54.73;97510.00;18470493;32;20419;-61
2022/09/12 15:18:27;;;;;;;1.00;0.55;;;;;;;24.32;57.78;97492.03;18483000;32;20076;-61
2022/09/12 15:28:31;;;;;;;0.85;0.47;;;;;;;23.97;59.24;97498.47;18496248;32;20049;-61
2022/09/12 15:38:33;;;;;;;1.10;0.60;;;;;;;23.70;62.06;97500.22;18481673;32;20061;-61
2022/09/12 15:48:36;;;;;;;;;;;;;;;23.42;62.60;97494.88;18496360;32;20049;-61
2022/09/12 15:58:38;;;;;;;1.50;0.60;;;;;;;23.10;63.51;97484.66;18495199;32;19948;-61
2022/09/12 16:08:59;;;;;;;0.82;0.50;;;;;;;22.75;63.48;97479.88;18483260;32;20058;-61
2022/09/12 16:19:02;;;;;;;0.88;0.40;;;;;;;22.36;63.96;97467.84;18488313;32;20073;-61
2022/09/12 16:29:05;;;;;;;1.27;0.70;;;;;;;21.89;65.31;97453.56;18494284;32;20057;-61
2022/09/12 16:39:07;;;;;;;1.83;0.45;;;;;;;21.50;68.07;97456.75;18479772;32;20080;-61
2022/09/12 16:49:10;;;;;;;1.30;0.80;;;;;;;21.11;69.50;97439.84;18475243;32;20060;-61
2022/09/12 16:59:15;;;;;;;;;;;;;;;20.69;72.29;97442.03;18491312;32;20057;-61
2022/09/12 17:09:18;;;;;;;1.87;0.68;;;;;;;20.22;74.34;97424.75;18504598;32;20007;-61
2022/09/12 17:19:26;;;;;;;0.90;0.60;;;;;;;19.84;76.46;97422.25;18489876;32;20467;-61
2022/09/12 17:29:29;;;;;;;0.82;0.70;;;;;;;19.46;78.69;97418.53;18503500;32;20091;-61
2022/09/12 17:39:32;;;;;;;0.90;0.60;;;;;;;19.11;81.01;97422.28;18364533;32;20091;-61
2022/09/12 17:49:35;;;;;;;1.60;0.82;;;;;;;18.83;83.30;97426.59;18351413;32;20050;-61
2022/09/12 17:59:38;;;;;;;0.53;0.53;;;;;;;18.53;85.38;97432.87;18362570;32;20089;-61
2022/09/12 18:09:40;;;;;;;1.85;0.98;;;;;;;18.22;87.02;97427.66;18360712;32;20045;-61
2022/09/12 18:19:44;;;;;;;1.77;1.00;;;;;;;17.93;88.26;97440.91;18434709;32;20053;-61
2022/09/12 18:29:51;;;;;;;2.20;1.33;;;;;;;17.67;89.70;97440.91;18435258;32;20124;-61
2022/09/12 18:40:14;;;;;;;1.25;0.77;;;;;;;17.43;91.00;97446.84;18433584;32;20075;-61
2022/09/12 18:50:17;;;;;;;1.60;0.77;;;;;;;17.17;91.56;97444.06;18432599;32;20098;-61
2022/09/12 19:00:19;;;;;;;1.93;0.90;;;;;;;16.93;92.56;97448.84;18480917;32;20053;-61
2022/09/12 19:10:22;;;;;;;1.40;0.95;;;;;;;16.71;93.40;97452.44;18483025;32;20086;-61
2022/09/12 19:20:25;;;;;;;2.28;0.90;;;;;;;16.52;94.72;97452.69;18482672;32;20057;-61
2022/09/12 19:30:28;;;;;;;2.30;0.70;;;;;;;16.32;94.93;97454.03;18469746;32;20090;-61
2022/09/12 19:40:30;;;;;;;1.58;1.00;;;;;;;16.12;95.56;97449.91;18495944;32;20049;-61
2022/09/12 19:50:33;;;;;;;1.23;1.08;;;;;;;15.96;96.95;97452.19;18357821;32;20152;-61
2022/09/12 20:00:36;;;;;;;2.83;1.55;;;;;;;15.80;97.78;97449.06;18357130;32;20073;-61
2022/09/12 20:10:39;;;;;;;2.60;1.10;;;;;;;15.63;97.97;97438.00;18357369;32;20103;-61
2022/09/12 20:20:41;;;;;;;1.42;1.10;;;;;;;15.45;98.50;97437.84;18371913;32;20127;-61
2022/09/12 20:30:44;;;;;;;1.67;1.10;;;;;;;15.29;98.69;97451.00;18441128;32;20110;-61
2022/09/12 20:40:48;;;;;;;1.55;1.08;;;;;;;15.13;99.34;97436.91;18441730;32;20061;-61
2022/09/12 20:50:51;;;;;;;2.47;1.10;;;;;;;15.03;100.00;97437.94;18439887;32;20098;-61
2022/09/12 21:00:53;;;;;;;1.73;1.08;;;;;;;15.00;100.00;97443.97;18492105;32;20045;-61
2022/09/12 21:10:57;;;;;;;1.85;1.20;;;;;;;14.90;100.00;97427.88;18490584;32;20060;-61
2022/09/12 21:21:00;;;;;;;1.55;0.80;;;;;;;14.76;100.00;97421.62;18504131;32;20369;-61
2022/09/12 21:31:03;;;;;;;4.65;1.10;;;;;;;14.68;100.00;97428.59;18502987;32;20065;-61
2022/09/12 21:41:10;;;;;;;1.33;1.03;;;;;;;14.62;100.00;97435.22;18502782;32;20061;-61
2022/09/12 21:51:13;;;;;;;1.35;0.85;;;;;;;14.55;100.00;97427.44;18501878;32;20054;-61
2022/09/12 22:01:15;;;;;;;1.55;0.93;;;;;;;14.45;100.00;97411.34;18501121;32;20433;-61
2022/09/12 22:11:18;;;;;;;2.25;1.02;;;;;;;14.46;100.00;97423.81;18500882;32;20073;-61
2022/09/12 22:21:23;;;;;;;4.20;1.02;;;;;;;14.37;100.00;97404.66;18500190;32;20080;-61
2022/09/12 22:31:25;;;;;;;2.47;1.00;;;;;;;14.28;100.00;97406.47;18499806;32;20061;-61
2022/09/12 22:41:28;;;;;;;1.15;1.00;;;;;;;14.22;100.00;97406.59;18471733;32;20049;-61
2022/09/12 22:51:31;;;;;;;1.30;0.88;;;;;;;14.16;100.00;97405.03;18498455;32;20048;-61
2022/09/12 23:01:34;;;;;;;3.58;1.45;;;;;;;14.06;100.00;97405.25;18483601;32;20369;-61
2022/09/12 23:11:37;;;;;;;1.70;1.05;;;;;;;14.05;100.00;97392.75;18497536;32;20068;-61
2022/09/12 23:21:39;;;;;;;1.90;1.20;;;;;;;13.99;100.00;97383.88;18496931;32;20449;-61
2022/09/12 23:31:42;;;;;;;2.17;0.93;;;;;;;13.88;100.00;97372.37;18496273;32;20088;-61
2022/09/12 23:41:44;;;;;;;2.92;1.30;;;;;;;13.77;100.00;97370.94;18481548;32;20066;-61
2022/09/12 23:51:47;;;;;;;1.83;1.20;;;;;;;13.68;100.00;97362.66;18496190;32;20045;-61
